Time,TemperatureF,DewpointF,PressureIn,WindDirection,WindDirectionDegrees,WindSpeedMPH,WindSpeedGustMPH,Humidity,HourlyPrecipIn,Conditions,Clouds,dailyrainin,SoftwareType,DateUTC
2013-04-12 00:01:00,47.1,44.0,29.87,SE,136,0.0,0.0,90,0.00,,,0.00,weatherlink.com 1.10,2013-04-12 07:01:00,
2013-04-12 00:16:00,46.6,44.0,29.87,SE,136,0.0,0.0,90,0.00,,,0.00,weatherlink.com 1.10,2013-04-12 07:16:00,
2013-04-12 00:31:00,46.2,44.0,29.87,SE,136,0.0,0.0,91,0.00,,,0.00,weatherlink.com 1.10,2013-04-12 07:31:00,
2013-04-12 00:46:00,46.1,44.0,29.88,SE,136,0.0,0.0,91,0.00,,,0.00,weatherlink.com 1.10,2013-04-12 07:46:00,
2013-04-12 01:01:00,45.6,43.0,29.88,SE,136,0.0,0.0,91,0.00,,,0.00,weatherlink.com 1.10,2013-04-12 08:01:00,
2013-04-12 01:46:00,44.4,42.0,29.87,SE,136,0.0,0.0,92,0.00,,,0.00,weatherlink.com 1.10,2013-04-12 08:46:00,
2013-04-12 02:31:00,43.2,41.0,29.87,SE,136,0.0,0.0,92,0.00,,,0.00,weatherlink.com 1.10,2013-04-12 09:31:00,
2013-04-12 02:46:00,42.8,41.0,29.86,SE,136,0.0,0.0,92,0.00,,,0.00,weatherlink.com 1.10,2013-04-12 09:46:00,
2013-04-12 03:31:00,42.3,40.0,29.86,SE,136,0.0,0.0,92,0.00,,,0.00,weatherlink.com 1.10,2013-04-12 10:31:00,
2013-04-12 03:46:00,41.8,40.0,29.86,SE,136,0.0,0.0,92,0.00,,,0.00,weatherlink.com 1.10,2013-04-12 10:46:00,
2013-04-12 04:01:00,41.6,40.0,29.86,SE,136,0.0,0.0,92,0.00,,,0.00,weatherlink.com 1.10,2013-04-12 11:01:00,
2013-04-12 04:16:00,41.4,39.0,29.86,SE,136,0.0,0.0,92,0.00,,,0.00,weatherlink.com 1.10,2013-04-12 11:16:00,
2013-04-12 04:31:00,40.8,39.0,29.86,SE,136,0.0,0.0,92,0.00,,,0.00,weatherlink.com 1.10,2013-04-12 11:31:00,
2013-04-12 04:46:00,40.5,38.0,29.86,SE,136,0.0,0.0,92,0.00,,,0.00,weatherlink.com 1.10,2013-04-12 11:46:00,
2013-04-12 05:01:00,40.4,39.0,29.86,SE,136,0.0,0.0,93,0.00,,,0.00,weatherlink.com 1.10,2013-04-12 12:01:00,
2013-04-12 05:16:00,40.1,38.0,29.86,SE,136,0.0,0.0,93,0.00,,,0.00,weatherlink.com 1.10,2013-04-12 12:16:00,
2013-04-12 05:31:00,39.8,38.0,29.87,SE,136,0.0,0.0,93,0.00,,,0.00,weatherlink.com 1.10,2013-04-12 12:31:00,
2013-04-12 05:46:00,39.8,38.0,29.87,SE,136,0.0,0.0,93,0.00,,,0.00,weatherlink.com 1.10,2013-04-12 12:46:00,
2013-04-12 06:01:00,39.4,38.0,29.87,SE,136,0.0,0.0,93,0.00,,,0.00,weatherlink.com 1.10,2013-04-12 13:01:00,
2013-04-12 06:16:00,39.2,37.0,29.88,SE,136,0.0,0.0,93,0.00,,,0.00,weatherlink.com 1.10,2013-04-12 13:16:00,
2013-04-12 06:31:00,38.9,37.0,29.88,SE,136,0.0,0.0,93,0.00,,,0.00,weatherlink.com 1.10,2013-04-12 13:31:00,
2013-04-12 06:46:00,38.7,37.0,29.88,SE,136,0.0,0.0,93,0.00,,,0.00,weatherlink.com 1.10,2013-04-12 13:46:00,
2013-04-12 07:01:00,38.6,37.0,29.89,SE,136,0.0,0.0,93,0.00,,,0.00,weatherlink.com 1.10,2013-04-12 14:01:00,
2013-04-12 07:31:00,40.7,39.0,29.90,SE,136,0.0,0.0,94,0.00,,,0.00,weatherlink.com 1.10,2013-04-12 14:31:00,
2013-04-12 07:46:00,43.4,42.0,29.90,SE,136,0.0,0.0,94,0.00,,,0.00,weatherlink.com 1.10,2013-04-12 14:46:00,
2013-04-12 08:01:00,45.5,44.0,29.91,SE,136,0.0,0.0,95,0.00,,,0.00,weatherlink.com 1.10,2013-04-12 15:01:00,
2013-04-12 08:17:00,48.1,47.0,29.91,SE,136,0.0,0.0,94,0.00,,,0.00,weatherlink.com 1.10,2013-04-12 15:17:00,
2013-04-12 08:32:00,50.3,47.0,29.91,SE,136,0.0,0.0,88,0.00,,,0.00,weatherlink.com 1.10,2013-04-12 15:32:00,
2013-04-12 08:47:00,52.0,48.0,29.91,SE,136,0.0,0.0,85,0.00,,,0.00,weatherlink.com 1.10,2013-04-12 15:47:00,
2013-04-12 09:02:00,53.6,48.0,29.92,ESE,105,0.0,3.0,81,0.00,,,0.00,weatherlink.com 1.10,2013-04-12 16:02:00,
2013-04-12 09:17:00,54.7,47.0,29.91,SE,142,3.0,4.0,76,0.00,,,0.00,weatherlink.com 1.10,2013-04-12 16:17:00,
2013-04-12 09:32:00,55.1,47.0,29.91,East,81,1.0,3.0,73,0.00,,,0.00,weatherlink.com 1.10,2013-04-12 16:32:00,
2013-04-12 09:47:00,56.4,47.0,29.91,ESE,109,0.0,3.0,72,0.00,,,0.00,weatherlink.com 1.10,2013-04-12 16:47:00,
2013-04-12 10:02:00,57.6,48.0,29.91,SE,139,1.0,3.0,71,0.00,,,0.00,weatherlink.com 1.10,2013-04-12 17:02:00,
2013-04-12 10:17:00,58.8,48.0,29.91,ENE,76,3.0,6.0,68,0.00,,,0.00,weatherlink.com 1.10,2013-04-12 17:17:00,
2013-04-12 10:32:00,59.8,49.0,29.91,East,88,0.0,3.0,68,0.00,,,0.00,weatherlink.com 1.10,2013-04-12 17:32:00,
2013-04-12 10:47:00,61.1,50.0,29.91,SE,145,1.0,5.0,66,0.00,,,0.00,weatherlink.com 1.10,2013-04-12 17:47:00,
2013-04-12 11:17:00,63.6,50.0,29.90,SE,131,0.0,3.0,62,0.00,,,0.00,weatherlink.com 1.10,2013-04-12 18:17:00,
2013-04-12 12:32:00,67.8,52.0,29.89,ESE,111,1.0,4.0,57,0.00,,,0.00,weatherlink.com 1.10,2013-04-12 19:32:00,
2013-04-12 12:48:00,68.8,54.0,29.88,East,82,1.0,9.0,59,0.00,,,0.00,weatherlink.com 1.10,2013-04-12 19:48:00,
2013-04-12 13:03:00,69.1,54.0,29.88,ESE,113,3.0,7.0,58,0.00,,,0.00,weatherlink.com 1.10,2013-04-12 20:03:00,
2013-04-12 13:18:00,69.4,55.0,29.88,SSE,147,4.0,8.0,60,0.00,,,0.00,weatherlink.com 1.10,2013-04-12 20:18:00,
2013-04-12 13:33:00,69.2,54.0,29.87,ESE,108,3.0,8.0,59,0.00,,,0.00,weatherlink.com 1.10,2013-04-12 20:33:00,
2013-04-12 13:48:00,69.5,53.0,29.86,SE,129,8.0,8.0,57,0.00,,,0.00,weatherlink.com 1.10,2013-04-12 20:48:00,
2013-04-12 14:03:00,70.4,53.0,29.86,SE,134,7.0,8.0,55,0.00,,,0.00,weatherlink.com 1.10,2013-04-12 21:03:00,
2013-04-12 14:18:00,71.2,54.0,29.86,SE,124,6.0,10.0,54,0.00,,,0.00,weatherlink.com 1.10,2013-04-12 21:18:00,
2013-04-12 14:33:00,71.9,55.0,29.86,SE,134,7.0,12.0,55,0.00,,,0.00,weatherlink.com 1.10,2013-04-12 21:33:00,
2013-04-12 14:48:00,72.8,54.0,29.85,SW,236,1.0,12.0,52,0.00,,,0.00,weatherlink.com 1.10,2013-04-12 21:48:00,
2013-04-12 15:03:00,75.7,47.0,29.85,WSW,251,4.0,6.0,36,0.00,,,0.00,weatherlink.com 1.10,2013-04-12 22:03:00,
2013-04-12 15:18:00,76.4,48.0,29.84,West,279,4.0,8.0,37,0.00,,,0.00,weatherlink.com 1.10,2013-04-12 22:18:00,
2013-04-12 15:33:00,76.7,44.0,29.84,WSW,238,4.0,7.0,31,0.00,,,0.00,weatherlink.com 1.10,2013-04-12 22:33:00,
2013-04-12 15:48:00,77.4,44.0,29.84,North,11,0.0,6.0,30,0.00,,,0.00,weatherlink.com 1.10,2013-04-12 22:48:00,
2013-04-12 16:03:00,78.0,46.0,29.83,WNW,298,1.0,6.0,32,0.00,,,0.00,weatherlink.com 1.10,2013-04-12 23:03:00,
2013-04-12 16:18:00,77.7,41.0,29.82,East,94,3.0,7.0,27,0.00,,,0.00,weatherlink.com 1.10,2013-04-12 23:18:00,
2013-04-12 16:33:00,77.1,44.0,29.81,SSE,155,3.0,7.0,31,0.00,,,0.00,weatherlink.com 1.10,2013-04-12 23:33:00,
2013-04-12 16:48:00,76.6,44.0,29.81,SE,130,3.0,7.0,31,0.00,,,0.00,weatherlink.com 1.10,2013-04-12 23:48:00,
2013-04-12 17:03:00,76.5,44.0,29.80,SSE,153,2.0,7.0,31,0.00,,,0.00,weatherlink.com 1.10,2013-04-13 00:03:00,
2013-04-12 17:18:00,73.5,51.0,29.80,SE,124,7.0,10.0,46,0.00,,,0.00,weatherlink.com 1.10,2013-04-13 00:18:00,
2013-04-12 17:33:00,71.6,51.0,29.80,SSE,147,7.0,11.0,49,0.00,,,0.00,weatherlink.com 1.10,2013-04-13 00:33:00,
2013-04-12 17:48:00,70.1,51.0,29.80,SE,134,6.0,10.0,51,0.00,,,0.00,weatherlink.com 1.10,2013-04-13 00:48:00,
2013-04-12 18:03:00,69.2,53.0,29.81,ESE,107,5.0,9.0,56,0.00,,,0.00,weatherlink.com 1.10,2013-04-13 01:03:00,
2013-04-12 18:18:00,66.6,52.0,29.81,ENE,74,2.0,8.0,59,0.00,,,0.00,weatherlink.com 1.10,2013-04-13 01:18:00,
2013-04-12 18:33:00,64.3,51.0,29.81,ESE,109,2.0,7.0,63,0.00,,,0.00,weatherlink.com 1.10,2013-04-13 01:33:00,
2013-04-12 18:48:00,61.8,50.0,29.82,ESE,116,3.0,8.0,65,0.00,,,0.00,weatherlink.com 1.10,2013-04-13 01:48:00,
2013-04-12 19:03:00,60.3,50.0,29.82,ENE,77,0.0,7.0,70,0.00,,,0.00,weatherlink.com 1.10,2013-04-13 02:03:00,
2013-04-12 19:18:00,58.9,49.0,29.82,SE,132,1.0,7.0,70,0.00,,,0.00,weatherlink.com 1.10,2013-04-13 02:18:00,
2013-04-12 19:33:00,57.8,49.0,29.82,East,101,2.0,4.0,72,0.00,,,0.00,weatherlink.com 1.10,2013-04-13 02:33:00,
2013-04-12 19:48:00,56.8,49.0,29.83,East,98,0.0,4.0,74,0.00,,,0.00,weatherlink.com 1.10,2013-04-13 02:48:00,
2013-04-12 20:03:00,55.8,48.0,29.83,East,98,0.0,1.0,76,0.00,,,0.00,weatherlink.com 1.10,2013-04-13 03:03:00,
2013-04-12 20:18:00,54.8,48.0,29.83,East,98,1.0,2.0,79,0.00,,,0.00,weatherlink.com 1.10,2013-04-13 03:18:00,
2013-04-12 20:33:00,54.0,48.0,29.84,East,98,0.0,2.0,80,0.00,,,0.00,weatherlink.com 1.10,2013-04-13 03:33:00,
2013-04-12 20:48:00,53.3,47.0,29.84,East,98,0.0,1.0,80,0.00,,,0.00,weatherlink.com 1.10,2013-04-13 03:48:00,
2013-04-12 21:03:00,52.6,47.0,29.85,East,98,0.0,2.0,82,0.00,,,0.00,weatherlink.com 1.10,2013-04-13 04:03:00,
2013-04-12 21:18:00,52.0,47.0,29.86,SE,124,0.0,0.0,83,0.00,,,0.00,weatherlink.com 1.10,2013-04-13 04:18:00,
2013-04-12 21:33:00,50.9,46.0,29.86,SE,124,0.0,1.0,84,0.00,,,0.00,weatherlink.com 1.10,2013-04-13 04:33:00,
2013-04-12 21:48:00,50.1,46.0,29.86,SE,124,0.0,1.0,87,0.00,,,0.00,weatherlink.com 1.10,2013-04-13 04:48:00,
2013-04-12 22:03:00,49.8,46.0,29.87,SE,124,0.0,1.0,87,0.00,,,0.00,weatherlink.com 1.10,2013-04-13 05:03:00,
2013-04-12 22:18:00,49.7,46.0,29.87,SE,124,0.0,2.0,88,0.00,,,0.00,weatherlink.com 1.10,2013-04-13 05:18:00,
2013-04-12 22:33:00,49.3,46.0,29.88,SE,124,2.0,3.0,88,0.00,,,0.00,weatherlink.com 1.10,2013-04-13 05:33:00,
2013-04-12 22:49:00,48.0,45.0,29.88,SE,124,0.0,1.0,88,0.00,,,0.00,weatherlink.com 1.10,2013-04-13 05:49:00,
2013-04-12 23:03:00,47.9,45.0,29.88,SE,124,0.0,0.0,90,0.00,,,0.00,weatherlink.com 1.10,2013-04-13 06:03:00,
2013-04-12 23:18:00,47.7,45.0,29.87,SE,124,0.0,0.0,90,0.00,,,0.00,weatherlink.com 1.10,2013-04-13 06:18:00,
2013-04-12 23:48:00,46.8,44.0,29.87,SE,124,0.0,0.0,91,0.00,,,0.00,weatherlink.com 1.10,2013-04-13 06:48:00,